createdAt,value
2022-11-28T00:01:29.232Z,5.60
2022-11-28T00:03:56.129Z,5.50
2022-11-28T00:06:24.286Z,5.60
2022-11-28T00:08:53.779Z,5.60
2022-11-28T00:11:20.836Z,5.60
2022-11-28T00:13:49.947Z,5.60
2022-11-28T00:16:18.413Z,5.60
2022-11-28T00:18:47.918Z,5.60
2022-11-28T00:21:14.979Z,5.60
2022-11-28T00:23:42.523Z,5.60
2022-11-28T00:26:13.447Z,5.60
2022-11-28T00:28:40.411Z,5.60
2022-11-28T00:31:11.641Z,5.60
2022-11-28T00:33:38.373Z,5.60
2022-11-28T00:36:05.306Z,5.60
2022-11-28T00:38:34.375Z,5.60
2022-11-28T00:41:14.567Z,5.60
2022-11-28T00:43:41.877Z,5.60
2022-11-28T00:46:08.998Z,5.60
2022-11-28T00:48:36.163Z,5.60
2022-11-28T00:51:10.574Z,5.60
2022-11-28T00:53:37.708Z,5.60
2022-11-28T00:56:07.242Z,5.60
2022-11-28T00:58:34.760Z,5.60
2022-11-28T01:01:07.223Z,5.50
2022-11-28T01:03:33.978Z,5.50
2022-11-28T01:06:00.656Z,5.50
2022-11-28T01:08:29.841Z,5.50
2022-11-28T01:10:56.584Z,5.50
2022-11-28T01:13:23.338Z,5.50
2022-11-28T01:15:52.461Z,5.50
2022-11-28T01:18:19.181Z,5.50
2022-11-28T01:20:45.960Z,5.50
2022-11-28T01:23:16.554Z,5.40
2022-11-28T01:25:45.907Z,5.50
2022-11-28T01:28:12.616Z,5.50
2022-11-28T01:30:41.536Z,5.40
2022-11-28T01:33:10.682Z,5.40
2022-11-28T01:35:37.408Z,5.40
2022-11-28T01:38:06.522Z,5.40
2022-11-28T01:40:33.363Z,5.40
2022-11-28T01:43:00.062Z,5.40
2022-11-28T01:45:30.716Z,5.40
2022-11-28T01:48:01.571Z,5.30
2022-11-28T01:50:29.589Z,5.30
2022-11-28T01:52:57.646Z,5.30
2022-11-28T01:55:26.511Z,5.30
2022-11-28T01:57:54.157Z,5.40
2022-11-28T02:00:21.371Z,5.30
2022-11-28T02:02:49.880Z,5.30
2022-11-28T02:05:17.687Z,5.30
2022-11-28T02:07:44.719Z,5.30
2022-11-28T02:10:15.227Z,5.30
2022-11-28T02:12:48.042Z,5.30
2022-11-28T02:15:44.120Z,5.30
2022-11-28T02:18:13.271Z,5.30
2022-11-28T02:20:49.071Z,5.30
2022-11-28T02:23:22.118Z,5.30
2022-11-28T02:25:54.964Z,5.30
2022-11-28T02:28:51.244Z,5.30
2022-11-28T02:31:18.008Z,5.20
2022-11-28T02:33:46.598Z,5.20
2022-11-28T02:36:18.209Z,5.20
2022-11-28T02:39:05.814Z,5.20
2022-11-28T02:41:35.592Z,5.20
2022-11-28T02:44:21.165Z,5.20
2022-11-28T02:46:59.871Z,5.10
2022-11-28T02:49:48.174Z,5.20
2022-11-28T02:52:20.750Z,5.20
2022-11-28T02:54:49.848Z,5.20
2022-11-28T02:57:16.575Z,5.20
2022-11-28T02:59:43.254Z,5.20
2022-11-28T03:02:19.677Z,5.20
2022-11-28T03:04:52.519Z,5.20
2022-11-28T03:07:51.720Z,5.20
2022-11-28T03:10:30.619Z,5.20
2022-11-28T03:13:29.116Z,5.20
2022-11-28T03:16:02.731Z,5.20
2022-11-28T03:18:36.377Z,5.10
2022-11-28T03:21:15.935Z,5.10
2022-11-28T03:23:51.893Z,5.10
2022-11-28T03:26:40.701Z,5.10
2022-11-28T03:29:13.056Z,5.10
2022-11-28T03:31:42.288Z,5.10
2022-11-28T03:34:14.764Z,5.10
2022-11-28T03:36:44.667Z,5.10
2022-11-28T03:39:13.880Z,5.10
2022-11-28T03:45:53.456Z,5.00
2022-11-28T03:48:24.607Z,5.10
2022-11-28T03:50:58.129Z,5.00
2022-11-28T03:53:29.472Z,5.10
2022-11-28T03:56:11.371Z,5.00
2022-11-28T03:58:41.982Z,5.00
2022-11-28T04:01:16.851Z,5.00
2022-11-28T04:03:51.813Z,5.00
2022-11-28T04:06:24.938Z,5.00
2022-11-28T04:09:07.108Z,5.00
2022-11-28T04:11:47.266Z,5.00
2022-11-28T04:14:34.263Z,5.00
2022-11-28T04:17:07.259Z,5.00
2022-11-28T04:19:34.054Z,5.00
2022-11-28T04:22:19.748Z,4.90
2022-11-28T04:24:57.898Z,4.90
2022-11-28T04:27:28.948Z,4.90
2022-11-28T04:29:58.715Z,4.90
2022-11-28T04:32:26.912Z,4.90
2022-11-28T04:34:56.316Z,4.90
2022-11-28T04:37:25.220Z,4.90
2022-11-28T04:39:54.818Z,5.00
2022-11-28T04:42:27.364Z,4.90
2022-11-28T04:44:57.322Z,5.00
2022-11-28T04:47:24.786Z,5.00
2022-11-28T04:49:52.046Z,5.00
2022-11-28T04:52:31.362Z,5.00
2022-11-28T04:55:09.974Z,5.00
2022-11-28T04:57:38.283Z,5.00
2022-11-28T05:00:13.518Z,5.00
2022-11-28T05:02:41.719Z,5.00
2022-11-28T05:05:11.864Z,5.00
2022-11-28T05:07:38.948Z,5.00
2022-11-28T05:10:06.766Z,5.00
2022-11-28T05:12:33.486Z,5.00
2022-11-28T05:15:02.992Z,5.00
2022-11-28T05:17:29.817Z,5.10
2022-11-28T05:19:56.580Z,5.00
2022-11-28T05:22:23.312Z,5.10
2022-11-28T05:24:50.258Z,5.10
2022-11-28T05:27:17.057Z,5.10
2022-11-28T05:29:49.424Z,5.10
2022-11-28T05:32:18.661Z,5.10
2022-11-28T05:34:45.411Z,5.10
2022-11-28T05:37:12.193Z,5.10
2022-11-28T05:39:41.764Z,5.10
2022-11-28T05:42:11.022Z,5.10
2022-11-28T05:44:39.999Z,5.20
2022-11-28T05:47:06.725Z,5.20
2022-11-28T05:49:33.513Z,5.20
2022-11-28T05:52:00.307Z,5.20
2022-11-28T05:54:27.068Z,5.10
2022-11-28T05:56:55.959Z,5.10
2022-11-28T05:59:22.696Z,5.10
2022-11-28T06:01:49.570Z,5.10
2022-11-28T06:04:16.449Z,5.10
2022-11-28T06:06:43.220Z,5.10
2022-11-28T06:09:09.892Z,5.10
2022-11-28T06:11:36.606Z,5.10
2022-11-28T06:14:03.391Z,5.10
2022-11-28T06:16:34.745Z,5.10
2022-11-28T06:19:02.602Z,5.10
2022-11-28T06:21:30.232Z,5.00
2022-11-28T06:23:58.270Z,5.00
2022-11-28T06:26:28.384Z,5.00
2022-11-28T06:28:58.433Z,5.00
2022-11-28T06:31:28.122Z,5.00
2022-11-28T06:33:54.902Z,5.00
2022-11-28T06:36:21.733Z,5.00
2022-11-28T06:38:48.696Z,5.00
2022-11-28T06:41:17.487Z,5.00
2022-11-28T06:43:44.311Z,5.00
2022-11-28T06:46:16.145Z,5.00
2022-11-28T06:48:46.310Z,5.00
2022-11-28T06:51:13.767Z,5.00
2022-11-28T06:53:40.845Z,5.00
2022-11-28T06:56:12.441Z,5.00
2022-11-28T06:58:39.209Z,5.00
2022-11-28T07:01:11.117Z,5.00
2022-11-28T07:03:38.514Z,5.00
2022-11-28T07:06:05.608Z,5.00
2022-11-28T07:08:35.024Z,5.00
2022-11-28T07:11:09.636Z,5.00
2022-11-28T07:13:38.854Z,4.90
2022-11-28T07:16:06.060Z,4.90
2022-11-28T07:18:35.185Z,4.90
2022-11-28T07:21:04.046Z,5.00
2022-11-28T07:23:33.233Z,5.00
2022-11-28T07:26:00.643Z,5.00
2022-11-28T07:28:30.245Z,5.00
2022-11-28T07:31:01.768Z,5.00
2022-11-28T07:33:28.818Z,5.00
2022-11-28T07:36:01.819Z,5.00
2022-11-28T07:38:31.077Z,5.00
2022-11-28T07:41:11.496Z,5.10
2022-11-28T07:43:38.394Z,5.10
2022-11-28T07:46:06.421Z,5.10
2022-11-28T07:48:33.480Z,5.10
2022-11-28T07:51:00.636Z,5.10
2022-11-28T07:53:27.343Z,5.10
2022-11-28T07:55:54.101Z,5.10
2022-11-28T07:58:22.087Z,5.10
2022-11-28T08:00:51.095Z,5.10
2022-11-28T08:06:56.935Z,5.20
2022-11-28T08:09:25.794Z,5.20
2022-11-28T08:11:52.676Z,5.20
2022-11-28T08:14:20.377Z,5.20
2022-11-28T08:16:47.331Z,5.30
2022-11-28T08:19:16.596Z,5.30
2022-11-28T08:21:43.302Z,5.30
2022-11-28T08:24:10.942Z,5.30
2022-11-28T08:26:37.940Z,5.40
2022-11-28T08:29:04.774Z,5.40
2022-11-28T08:31:36.678Z,5.40
2022-11-28T08:34:07.118Z,5.40
2022-11-28T08:36:34.268Z,5.40
2022-11-28T08:39:24.033Z,5.40
2022-11-28T08:41:51.656Z,5.50
2022-11-28T08:44:20.910Z,5.50
2022-11-28T08:46:49.957Z,5.60
2022-11-28T08:49:16.778Z,5.60
2022-11-28T08:51:48.496Z,5.70
2022-11-28T08:54:17.656Z,5.70
2022-11-28T08:56:46.508Z,5.80
2022-11-28T08:59:13.310Z,5.80
2022-11-28T09:01:40.055Z,5.80
2022-11-28T09:04:06.910Z,5.90
2022-11-28T09:06:33.734Z,5.90
2022-11-28T09:09:03.025Z,5.90
2022-11-28T09:11:30.001Z,5.90
2022-11-28T09:13:59.434Z,5.80
2022-11-28T09:16:26.212Z,5.90
2022-11-28T09:18:54.129Z,5.90
2022-11-28T09:21:23.255Z,5.90
2022-11-28T09:23:50.005Z,5.90
2022-11-28T09:26:20.354Z,5.90
2022-11-28T09:28:47.212Z,5.90
2022-11-28T09:31:14.997Z,5.90
2022-11-28T09:33:42.553Z,5.90
2022-11-28T09:36:19.438Z,5.90
2022-11-28T09:38:46.617Z,5.90
2022-11-28T09:41:22.572Z,5.80
2022-11-28T09:43:55.049Z,5.90
2022-11-28T09:46:25.986Z,5.80
2022-11-28T09:48:55.165Z,5.90
2022-11-28T09:51:27.202Z,5.90
2022-11-28T09:54:12.729Z,6.00
2022-11-28T09:56:39.912Z,6.00
2022-11-28T09:59:12.874Z,6.00
2022-11-28T10:01:47.780Z,6.00
2022-11-28T10:04:20.629Z,6.10
2022-11-28T10:06:53.933Z,6.10
2022-11-28T10:09:29.906Z,6.10
2022-11-28T10:12:15.515Z,6.10
2022-11-28T10:15:00.052Z,6.10
2022-11-28T10:17:50.471Z,6.10
2022-11-28T10:20:17.191Z,6.10
2022-11-28T10:22:46.171Z,6.10
2022-11-28T10:25:31.739Z,6.10
2022-11-28T10:28:00.824Z,6.10
2022-11-28T10:30:30.712Z,6.00
2022-11-28T10:33:00.666Z,6.10
2022-11-28T10:35:46.396Z,6.10
2022-11-28T10:38:14.444Z,6.10
2022-11-28T10:40:44.234Z,6.10
2022-11-28T10:43:10.918Z,6.10
2022-11-28T10:45:43.646Z,6.10
2022-11-28T10:48:38.509Z,6.20
2022-11-28T10:51:19.205Z,6.20
2022-11-28T10:54:04.542Z,6.20
2022-11-28T10:56:31.225Z,6.30
2022-11-28T10:59:21.278Z,6.30
2022-11-28T11:01:50.462Z,6.30
2022-11-28T11:04:19.197Z,6.30
2022-11-28T11:07:07.903Z,6.40
2022-11-28T11:09:37.011Z,6.30
2022-11-28T11:12:13.703Z,6.40
2022-11-28T11:14:43.596Z,6.50
2022-11-28T11:17:24.536Z,6.50
2022-11-28T11:19:53.882Z,6.50
2022-11-28T11:22:20.541Z,6.50
2022-11-28T11:25:07.577Z,6.50
2022-11-28T11:27:35.182Z,6.60
2022-11-28T11:30:15.484Z,6.60
2022-11-28T11:32:51.199Z,6.70
2022-11-28T11:35:23.798Z,6.70
2022-11-28T11:37:53.509Z,6.70
2022-11-28T11:40:20.658Z,6.80
2022-11-28T11:43:00.100Z,6.80
2022-11-28T11:45:27.247Z,6.70
2022-11-28T11:47:58.635Z,6.70
2022-11-28T11:50:26.571Z,6.70
2022-11-28T11:53:03.516Z,6.70
2022-11-28T11:55:32.745Z,6.70
2022-11-28T11:58:05.429Z,6.80
2022-11-28T12:00:37.554Z,6.80
2022-11-28T12:03:15.756Z,6.80
2022-11-28T12:06:12.284Z,6.80
2022-11-28T12:08:35.517Z,6.80
2022-11-28T12:11:02.245Z,6.80
2022-11-28T12:13:33.892Z,6.70
2022-11-28T12:16:00.677Z,6.80
2022-11-28T12:18:39.520Z,6.80
2022-11-28T12:21:06.275Z,6.80
2022-11-28T12:23:38.971Z,6.80
2022-11-28T12:26:21.002Z,6.70
2022-11-28T12:28:48.656Z,6.80
2022-11-28T12:31:18.521Z,6.80
2022-11-28T12:33:49.913Z,6.80
2022-11-28T12:36:16.606Z,6.80
2022-11-28T12:38:52.561Z,6.90
2022-11-28T12:41:57.490Z,6.90
2022-11-28T12:44:42.951Z,6.90
2022-11-28T12:47:18.684Z,6.90
2022-11-28T12:49:56.600Z,6.90
2022-11-28T12:52:23.411Z,6.90
2022-11-28T12:55:17.567Z,6.90
2022-11-28T12:57:47.308Z,6.90
2022-11-28T13:00:25.015Z,6.90
2022-11-28T13:03:00.928Z,6.90
2022-11-28T13:05:36.864Z,6.90
2022-11-28T13:08:06.652Z,6.90
2022-11-28T13:10:36.301Z,6.90
2022-11-28T13:13:14.565Z,6.90
2022-11-28T13:15:53.475Z,6.90
2022-11-28T13:18:29.377Z,6.80
2022-11-28T13:21:01.149Z,6.90
2022-11-28T13:23:44.745Z,6.90
2022-11-28T13:26:17.352Z,6.90
2022-11-28T13:28:47.196Z,6.90
2022-11-28T13:31:14.046Z,6.90
2022-11-28T13:33:50.301Z,6.80
2022-11-28T13:39:27.243Z,6.90
2022-11-28T13:42:59.438Z,6.90
2022-11-28T13:45:25.127Z,6.80
2022-11-28T13:47:58.466Z,6.80
2022-11-28T13:50:30.825Z,6.80
2022-11-28T13:53:03.846Z,6.80
2022-11-28T13:55:36.648Z,6.80
2022-11-28T13:58:15.620Z,6.70
2022-11-28T14:01:02.542Z,6.70
2022-11-28T14:03:30.991Z,6.70
2022-11-28T14:05:58.955Z,6.70
2022-11-28T14:08:28.067Z,6.60
2022-11-28T14:11:07.440Z,6.70
2022-11-28T14:13:39.866Z,6.60
2022-11-28T14:16:27.574Z,6.60
2022-11-28T14:18:58.242Z,6.50
2022-11-28T14:21:37.518Z,6.50
2022-11-28T14:24:17.195Z,6.50
2022-11-28T14:26:44.046Z,6.40
2022-11-28T14:29:23.932Z,6.40
2022-11-28T14:32:21.593Z,6.40
2022-11-28T14:34:47.656Z,6.40
2022-11-28T14:37:21.334Z,6.40
2022-11-28T14:39:49.525Z,6.40
2022-11-28T14:42:43.830Z,6.40
2022-11-28T14:45:26.385Z,6.40
2022-11-28T14:48:12.083Z,6.40
2022-11-28T14:50:39.021Z,6.40
2022-11-28T14:53:24.545Z,6.40
2022-11-28T14:55:51.295Z,6.30
2022-11-28T14:58:20.344Z,6.30
2022-11-28T15:00:57.934Z,6.20
2022-11-28T15:03:33.151Z,6.20
2022-11-28T15:06:07.729Z,6.20
2022-11-28T15:08:57.685Z,6.20
2022-11-28T15:11:26.850Z,6.10
2022-11-28T15:14:12.383Z,6.20
2022-11-28T15:16:48.294Z,6.10
2022-11-28T15:19:27.154Z,6.20
2022-11-28T15:21:55.210Z,6.10
2022-11-28T15:24:24.739Z,6.10
2022-11-28T15:26:57.610Z,6.00
2022-11-28T15:29:26.195Z,6.00
2022-11-28T15:31:55.466Z,6.00
2022-11-28T15:34:22.778Z,6.00
2022-11-28T15:36:51.352Z,6.00
2022-11-28T15:39:25.080Z,6.00
2022-11-28T15:41:55.454Z,6.10
2022-11-28T15:44:22.615Z,6.00
2022-11-28T15:46:51.822Z,5.90
2022-11-28T15:49:40.494Z,5.90
2022-11-28T15:52:07.294Z,5.90
2022-11-28T15:54:34.161Z,5.90
2022-11-28T15:57:01.629Z,5.90
2022-11-28T15:59:28.810Z,5.90
2022-11-28T16:01:59.487Z,5.80
2022-11-28T16:04:27.284Z,5.80
2022-11-28T16:06:57.536Z,5.80
2022-11-28T16:09:24.476Z,5.80
2022-11-28T16:11:52.941Z,5.80
2022-11-28T16:14:22.287Z,5.80
2022-11-28T16:16:49.282Z,5.80
2022-11-28T16:19:23.394Z,5.80
2022-11-28T16:21:54.985Z,5.80
2022-11-28T16:24:38.550Z,5.70
2022-11-28T16:27:24.735Z,5.80
2022-11-28T16:29:51.449Z,5.70
2022-11-28T16:32:23.348Z,5.70
2022-11-28T16:34:51.639Z,5.70
2022-11-28T16:37:25.962Z,5.70
2022-11-28T16:40:19.140Z,5.70
2022-11-28T16:42:53.197Z,5.70
2022-11-28T16:45:24.862Z,5.70
2022-11-28T16:48:05.709Z,5.80
2022-11-28T16:50:35.565Z,5.70
2022-11-28T16:53:03.009Z,5.60
2022-11-28T16:55:29.683Z,5.70
2022-11-28T17:00:59.032Z,5.60
2022-11-28T17:03:45.847Z,5.60
2022-11-28T17:06:36.861Z,5.60
2022-11-28T17:09:04.666Z,5.60
2022-11-28T17:11:33.051Z,5.60
2022-11-28T17:14:02.581Z,5.60
2022-11-28T17:16:30.379Z,5.50
2022-11-28T17:18:57.202Z,5.50
2022-11-28T17:21:27.705Z,5.50
2022-11-28T17:23:55.033Z,5.50
2022-11-28T17:26:26.260Z,5.50
2022-11-28T17:28:53.259Z,5.40
2022-11-28T17:31:24.895Z,5.40
2022-11-28T17:33:51.627Z,5.40
2022-11-28T17:36:18.461Z,5.40
2022-11-28T17:38:45.178Z,5.40
2022-11-28T17:41:14.821Z,5.40
2022-11-28T17:43:41.942Z,5.40
2022-11-28T17:46:08.888Z,5.40
2022-11-28T17:48:35.948Z,5.40
2022-11-28T17:51:03.705Z,5.40
2022-11-28T17:53:56.953Z,5.40
2022-11-28T17:56:24.067Z,5.40
2022-11-28T17:58:50.788Z,5.40
2022-11-28T18:01:19.431Z,5.40
2022-11-28T18:03:46.275Z,5.40
2022-11-28T18:06:14.826Z,5.40
2022-11-28T18:08:42.374Z,5.40
2022-11-28T18:11:10.185Z,5.30
2022-11-28T18:13:38.622Z,5.30
2022-11-28T18:16:05.800Z,5.20
2022-11-28T18:18:33.132Z,5.20
2022-11-28T18:21:00.846Z,5.20
2022-11-28T18:23:30.145Z,5.30
2022-11-28T18:25:57.171Z,5.30
2022-11-28T18:28:26.370Z,5.40
2022-11-28T18:30:53.116Z,5.40
2022-11-28T18:33:19.951Z,5.40
2022-11-28T18:35:49.308Z,5.40
2022-11-28T18:38:16.082Z,5.40
2022-11-28T18:40:42.899Z,5.20
2022-11-28T18:43:09.699Z,5.30
2022-11-28T18:45:39.082Z,5.30
2022-11-28T18:48:05.915Z,5.30
2022-11-28T18:50:34.278Z,5.20
2022-11-28T18:53:01.006Z,5.30
2022-11-28T18:55:27.805Z,5.20
2022-11-28T18:57:54.565Z,5.10
2022-11-28T19:00:21.589Z,5.10
2022-11-28T19:02:48.886Z,5.20
2022-11-28T19:05:15.774Z,5.20
2022-11-28T19:07:42.857Z,5.10
2022-11-28T19:10:10.041Z,5.20
2022-11-28T19:12:37.393Z,5.20
2022-11-28T19:15:04.332Z,5.10
2022-11-28T19:17:34.069Z,5.10
2022-11-28T19:20:01.019Z,5.20
2022-11-28T19:22:28.284Z,5.10
2022-11-28T19:24:58.107Z,5.20
2022-11-28T19:27:27.570Z,5.20
2022-11-28T19:29:54.462Z,5.10
2022-11-28T19:32:23.461Z,5.20
2022-11-28T19:34:52.312Z,5.20
2022-11-28T19:37:19.208Z,5.20
2022-11-28T19:39:46.764Z,5.20
2022-11-28T19:42:13.602Z,5.20
2022-11-28T19:44:40.427Z,5.10
2022-11-28T19:47:07.362Z,5.10
2022-11-28T19:49:36.704Z,5.10
2022-11-28T19:52:03.539Z,5.20
2022-11-28T19:54:30.439Z,5.20
2022-11-28T19:56:57.292Z,5.20
2022-11-28T19:59:24.155Z,5.20
2022-11-28T20:01:53.721Z,5.20
2022-11-28T20:04:23.062Z,5.20
2022-11-28T20:06:49.903Z,5.20
2022-11-28T20:09:16.829Z,5.10
2022-11-28T20:11:43.782Z,5.10
2022-11-28T20:14:18.380Z,5.10
2022-11-28T20:16:47.855Z,5.10
2022-11-28T20:19:16.055Z,5.10
2022-11-28T20:21:45.000Z,5.10
2022-11-28T20:24:12.155Z,5.20
2022-11-28T20:26:40.583Z,5.20
2022-11-28T20:29:09.284Z,5.10
2022-11-28T20:31:37.527Z,5.10
2022-11-28T20:34:06.303Z,5.10
2022-11-28T20:36:33.779Z,5.10
2022-11-28T20:39:01.318Z,5.20
2022-11-28T20:41:29.390Z,5.20
2022-11-28T20:43:56.448Z,5.20
2022-11-28T20:46:28.039Z,5.20
2022-11-28T20:48:56.568Z,5.20
2022-11-28T20:51:28.584Z,5.20
2022-11-28T20:53:56.578Z,5.20
2022-11-28T20:56:29.637Z,5.30
2022-11-28T20:59:00.828Z,5.30
2022-11-28T21:01:29.470Z,5.20
2022-11-28T21:03:57.314Z,5.20
2022-11-28T21:06:27.405Z,5.20
2022-11-28T21:08:54.194Z,5.20
2022-11-28T21:11:50.567Z,5.10
2022-11-28T21:14:11.831Z,5.20
2022-11-28T21:16:38.563Z,5.20
2022-11-28T21:19:07.427Z,5.20
2022-11-28T21:21:34.804Z,5.20
2022-11-28T21:24:06.163Z,5.20
2022-11-28T21:26:39.199Z,5.20
2022-11-28T21:29:09.084Z,5.20
2022-11-28T21:31:41.103Z,5.20
2022-11-28T21:34:08.026Z,5.30
2022-11-28T21:36:35.016Z,5.20
2022-11-28T21:39:01.861Z,5.20
2022-11-28T21:41:29.762Z,5.20
2022-11-28T21:43:59.387Z,5.20
2022-11-28T21:46:26.660Z,5.20
2022-11-28T21:48:57.957Z,5.20
2022-11-28T21:51:25.444Z,5.10
2022-11-28T21:53:54.958Z,5.10
2022-11-28T21:56:22.241Z,5.20
2022-11-28T21:58:49.050Z,5.20
2022-11-28T22:01:15.857Z,5.20
2022-11-28T22:03:43.685Z,5.20
2022-11-28T22:06:17.742Z,5.10
2022-11-28T22:08:48.549Z,5.20
2022-11-28T22:11:15.966Z,5.20
2022-11-28T22:13:45.741Z,5.20
2022-11-28T22:16:17.169Z,5.20
2022-11-28T22:18:45.186Z,5.20
2022-11-28T22:21:50.044Z,5.20
2022-11-28T22:24:02.191Z,5.20
2022-11-28T22:26:28.908Z,5.20
2022-11-28T22:28:58.773Z,5.10
2022-11-28T22:31:25.793Z,5.10
2022-11-28T22:33:55.148Z,5.10
2022-11-28T22:36:22.839Z,5.10
2022-11-28T22:38:54.360Z,5.20
2022-11-28T22:41:28.311Z,5.20
2022-11-28T22:44:01.706Z,5.20
2022-11-28T22:46:30.822Z,5.20
2022-11-28T22:49:00.771Z,5.20
2022-11-28T22:51:28.864Z,5.10
2022-11-28T22:53:56.732Z,5.10
2022-11-28T22:56:28.854Z,5.10
2022-11-28T22:58:59.777Z,5.10
2022-11-28T23:01:29.113Z,5.10
2022-11-28T23:03:56.660Z,5.10
2022-11-28T23:06:25.187Z,5.10
2022-11-28T23:08:55.704Z,5.10
2022-11-28T23:11:25.931Z,5.10
2022-11-28T23:13:53.209Z,5.10
2022-11-28T23:16:26.966Z,5.00
2022-11-28T23:18:57.477Z,5.00
2022-11-28T23:21:24.769Z,5.00
2022-11-28T23:23:54.003Z,5.00
2022-11-28T23:26:24.551Z,5.00
2022-11-28T23:28:52.258Z,5.10
2022-11-28T23:31:23.052Z,5.00
2022-11-28T23:33:50.266Z,5.00
2022-11-28T23:36:21.323Z,4.90
2022-11-28T23:38:49.536Z,5.00
2022-11-28T23:41:16.558Z,5.00
2022-11-28T23:43:43.415Z,5.00
2022-11-28T23:46:16.311Z,4.90
2022-11-28T23:48:43.752Z,4.90
2022-11-28T23:51:12.751Z,4.90
2022-11-28T23:53:39.883Z,4.80
2022-11-28T23:56:17.182Z,4.80
2022-11-28T23:58:44.229Z,4.80
